sensor_id;sensor_type;location;lat;lon;timestamp;P1;durP1;ratioP1;P2;durP2;ratioP2
51358;SDS011;37448;51.588;7.248;2022-08-19T00:00:54;10.45;;;5.18;;
51358;SDS011;37448;51.588;7.248;2022-08-19T00:03:24;10.00;;;5.53;;
51358;SDS011;37448;51.588;7.248;2022-08-19T00:05:54;8.05;;;4.93;;
51358;SDS011;37448;51.588;7.248;2022-08-19T00:08:25;8.30;;;5.40;;
51358;SDS011;37448;51.588;7.248;2022-08-19T00:10:55;9.30;;;5.68;;
51358;SDS011;37448;51.588;7.248;2022-08-19T00:13:26;8.35;;;5.20;;
51358;SDS011;37448;51.588;7.248;2022-08-19T00:15:58;8.25;;;5.50;;
51358;SDS011;37448;51.588;7.248;2022-08-19T00:18:30;8.45;;;5.43;;
51358;SDS011;37448;51.588;7.248;2022-08-19T00:21:00;8.10;;;5.75;;
51358;SDS011;37448;51.588;7.248;2022-08-19T00:23:31;8.55;;;5.47;;
51358;SDS011;37448;51.588;7.248;2022-08-19T00:26:04;9.00;;;5.40;;
51358;SDS011;37448;51.588;7.248;2022-08-19T00:28:35;10.75;;;5.55;;
51358;SDS011;37448;51.588;7.248;2022-08-19T00:31:06;8.82;;;5.40;;
51358;SDS011;37448;51.588;7.248;2022-08-19T00:33:38;7.57;;;5.68;;
51358;SDS011;37448;51.588;7.248;2022-08-19T00:36:09;9.15;;;5.43;;
51358;SDS011;37448;51.588;7.248;2022-08-19T00:38:40;10.40;;;5.68;;
51358;SDS011;37448;51.588;7.248;2022-08-19T00:41:13;7.88;;;4.72;;
51358;SDS011;37448;51.588;7.248;2022-08-19T00:46:30;7.90;;;5.45;;
51358;SDS011;37448;51.588;7.248;2022-08-19T00:49:04;7.10;;;5.00;;
51358;SDS011;37448;51.588;7.248;2022-08-19T00:51:40;8.57;;;5.80;;
51358;SDS011;37448;51.588;7.248;2022-08-19T00:56:43;8.55;;;5.30;;
51358;SDS011;37448;51.588;7.248;2022-08-19T00:59:15;8.07;;;5.57;;
51358;SDS011;37448;51.588;7.248;2022-08-19T01:01:46;9.68;;;5.10;;
51358;SDS011;37448;51.588;7.248;2022-08-19T01:04:16;9.55;;;5.55;;
51358;SDS011;37448;51.588;7.248;2022-08-19T01:06:47;8.35;;;5.20;;
51358;SDS011;37448;51.588;7.248;2022-08-19T01:09:17;9.95;;;5.10;;
51358;SDS011;37448;51.588;7.248;2022-08-19T01:11:48;11.23;;;5.53;;
51358;SDS011;37448;51.588;7.248;2022-08-19T01:14:18;8.43;;;5.45;;
51358;SDS011;37448;51.588;7.248;2022-08-19T01:16:49;7.65;;;5.20;;
51358;SDS011;37448;51.588;7.248;2022-08-19T01:19:26;8.63;;;5.32;;
51358;SDS011;37448;51.588;7.248;2022-08-19T01:24:33;9.10;;;5.70;;
51358;SDS011;37448;51.588;7.248;2022-08-19T01:27:04;10.63;;;6.43;;
51358;SDS011;37448;51.588;7.248;2022-08-19T01:29:37;10.55;;;6.63;;
51358;SDS011;37448;51.588;7.248;2022-08-19T01:32:11;11.60;;;7.78;;
51358;SDS011;37448;51.588;7.248;2022-08-19T01:34:44;10.88;;;8.02;;
51358;SDS011;37448;51.588;7.248;2022-08-19T01:37:16;11.57;;;7.73;;
51358;SDS011;37448;51.588;7.248;2022-08-19T01:39:47;11.10;;;7.45;;
51358;SDS011;37448;51.588;7.248;2022-08-19T01:42:17;13.15;;;7.80;;
51358;SDS011;37448;51.588;7.248;2022-08-19T01:44:49;12.30;;;8.70;;
51358;SDS011;37448;51.588;7.248;2022-08-19T01:47:19;11.25;;;8.02;;
51358;SDS011;37448;51.588;7.248;2022-08-19T01:49:50;12.13;;;7.45;;
51358;SDS011;37448;51.588;7.248;2022-08-19T01:52:20;10.80;;;7.43;;
51358;SDS011;37448;51.588;7.248;2022-08-19T01:54:50;13.27;;;7.80;;
51358;SDS011;37448;51.588;7.248;2022-08-19T01:57:21;11.25;;;7.90;;
51358;SDS011;37448;51.588;7.248;2022-08-19T01:59:51;10.57;;;7.97;;
51358;SDS011;37448;51.588;7.248;2022-08-19T02:02:22;14.13;;;8.57;;
51358;SDS011;37448;51.588;7.248;2022-08-19T02:04:52;11.65;;;7.63;;
51358;SDS011;37448;51.588;7.248;2022-08-19T02:07:23;13.63;;;7.80;;
51358;SDS011;37448;51.588;7.248;2022-08-19T02:09:53;11.57;;;7.38;;
51358;SDS011;37448;51.588;7.248;2022-08-19T02:12:25;12.45;;;7.63;;
51358;SDS011;37448;51.588;7.248;2022-08-19T02:14:55;9.77;;;6.88;;
51358;SDS011;37448;51.588;7.248;2022-08-19T02:17:25;11.32;;;7.40;;
51358;SDS011;37448;51.588;7.248;2022-08-19T02:19:56;11.15;;;7.50;;
51358;SDS011;37448;51.588;7.248;2022-08-19T02:22:26;13.20;;;7.32;;
51358;SDS011;37448;51.588;7.248;2022-08-19T02:24:57;11.80;;;7.57;;
51358;SDS011;37448;51.588;7.248;2022-08-19T02:27:27;13.15;;;7.63;;
51358;SDS011;37448;51.588;7.248;2022-08-19T02:29:57;11.35;;;7.10;;
51358;SDS011;37448;51.588;7.248;2022-08-19T02:32:28;12.18;;;7.85;;
51358;SDS011;37448;51.588;7.248;2022-08-19T02:35:00;10.93;;;7.90;;
51358;SDS011;37448;51.588;7.248;2022-08-19T02:37:31;13.35;;;7.93;;
51358;SDS011;37448;51.588;7.248;2022-08-19T02:40:20;15.25;;;9.07;;
51358;SDS011;37448;51.588;7.248;2022-08-19T02:42:51;13.75;;;8.48;;
51358;SDS011;37448;51.588;7.248;2022-08-19T02:45:21;14.65;;;9.05;;
51358;SDS011;37448;51.588;7.248;2022-08-19T02:47:52;12.68;;;8.57;;
51358;SDS011;37448;51.588;7.248;2022-08-19T02:50:23;13.93;;;9.65;;
51358;SDS011;37448;51.588;7.248;2022-08-19T02:52:53;15.75;;;10.82;;
51358;SDS011;37448;51.588;7.248;2022-08-19T02:55:23;15.43;;;10.90;;
51358;SDS011;37448;51.588;7.248;2022-08-19T02:57:54;15.75;;;9.95;;
51358;SDS011;37448;51.588;7.248;2022-08-19T03:00:24;15.10;;;10.80;;
51358;SDS011;37448;51.588;7.248;2022-08-19T03:02:54;13.88;;;10.07;;
51358;SDS011;37448;51.588;7.248;2022-08-19T03:05:25;18.33;;;10.70;;
51358;SDS011;37448;51.588;7.248;2022-08-19T03:07:57;14.48;;;10.60;;
51358;SDS011;37448;51.588;7.248;2022-08-19T03:10:27;15.63;;;10.75;;
51358;SDS011;37448;51.588;7.248;2022-08-19T03:12:58;17.92;;;10.70;;
51358;SDS011;37448;51.588;7.248;2022-08-19T03:15:28;14.38;;;10.27;;
51358;SDS011;37448;51.588;7.248;2022-08-19T03:17:58;16.25;;;11.00;;
51358;SDS011;37448;51.588;7.248;2022-08-19T03:20:29;14.73;;;9.95;;
51358;SDS011;37448;51.588;7.248;2022-08-19T03:22:59;15.48;;;10.43;;
51358;SDS011;37448;51.588;7.248;2022-08-19T03:25:29;17.63;;;10.95;;
51358;SDS011;37448;51.588;7.248;2022-08-19T03:28:00;15.43;;;10.55;;
51358;SDS011;37448;51.588;7.248;2022-08-19T03:30:30;17.60;;;11.00;;
51358;SDS011;37448;51.588;7.248;2022-08-19T03:33:00;14.50;;;10.25;;
51358;SDS011;37448;51.588;7.248;2022-08-19T03:35:31;14.05;;;9.68;;
51358;SDS011;37448;51.588;7.248;2022-08-19T03:38:03;14.90;;;8.90;;
51358;SDS011;37448;51.588;7.248;2022-08-19T03:40:36;13.37;;;9.37;;
51358;SDS011;37448;51.588;7.248;2022-08-19T03:43:06;13.40;;;9.03;;
51358;SDS011;37448;51.588;7.248;2022-08-19T03:45:36;14.95;;;8.73;;
51358;SDS011;37448;51.588;7.248;2022-08-19T03:48:07;12.85;;;9.15;;
51358;SDS011;37448;51.588;7.248;2022-08-19T03:50:38;12.95;;;9.10;;
51358;SDS011;37448;51.588;7.248;2022-08-19T03:53:10;14.90;;;9.35;;
51358;SDS011;37448;51.588;7.248;2022-08-19T03:55:40;12.65;;;9.27;;
51358;SDS011;37448;51.588;7.248;2022-08-19T03:58:11;14.77;;;9.40;;
51358;SDS011;37448;51.588;7.248;2022-08-19T04:00:42;14.02;;;9.35;;
51358;SDS011;37448;51.588;7.248;2022-08-19T04:03:13;14.13;;;9.35;;
51358;SDS011;37448;51.588;7.248;2022-08-19T04:05:43;13.30;;;8.80;;
51358;SDS011;37448;51.588;7.248;2022-08-19T04:08:13;12.55;;;8.77;;
51358;SDS011;37448;51.588;7.248;2022-08-19T04:10:48;13.75;;;9.60;;
51358;SDS011;37448;51.588;7.248;2022-08-19T04:13:19;13.93;;;9.18;;
51358;SDS011;37448;51.588;7.248;2022-08-19T04:15:49;14.18;;;10.18;;
51358;SDS011;37448;51.588;7.248;2022-08-19T04:18:20;13.63;;;9.88;;
51358;SDS011;37448;51.588;7.248;2022-08-19T04:20:50;13.93;;;9.65;;
51358;SDS011;37448;51.588;7.248;2022-08-19T04:23:22;13.57;;;10.20;;
51358;SDS011;37448;51.588;7.248;2022-08-19T04:25:52;18.77;;;11.05;;
51358;SDS011;37448;51.588;7.248;2022-08-19T04:28:25;16.52;;;10.85;;
51358;SDS011;37448;51.588;7.248;2022-08-19T04:30:55;19.52;;;12.48;;
51358;SDS011;37448;51.588;7.248;2022-08-19T04:33:26;17.65;;;11.68;;
51358;SDS011;37448;51.588;7.248;2022-08-19T04:35:58;16.90;;;12.17;;
51358;SDS011;37448;51.588;7.248;2022-08-19T04:38:29;18.63;;;12.82;;
51358;SDS011;37448;51.588;7.248;2022-08-19T04:41:01;22.05;;;13.88;;
51358;SDS011;37448;51.588;7.248;2022-08-19T04:43:51;17.48;;;12.63;;
51358;SDS011;37448;51.588;7.248;2022-08-19T04:46:22;18.27;;;13.25;;
51358;SDS011;37448;51.588;7.248;2022-08-19T04:48:52;21.35;;;14.10;;
51358;SDS011;37448;51.588;7.248;2022-08-19T04:51:23;18.73;;;12.13;;
51358;SDS011;37448;51.588;7.248;2022-08-19T04:53:53;19.27;;;13.25;;
51358;SDS011;37448;51.588;7.248;2022-08-19T04:56:24;22.48;;;15.00;;
51358;SDS011;37448;51.588;7.248;2022-08-19T04:58:56;23.63;;;15.27;;
51358;SDS011;37448;51.588;7.248;2022-08-19T05:01:27;22.67;;;15.27;;
51358;SDS011;37448;51.588;7.248;2022-08-19T05:04:00;22.20;;;15.82;;
51358;SDS011;37448;51.588;7.248;2022-08-19T05:06:32;24.30;;;16.33;;
51358;SDS011;37448;51.588;7.248;2022-08-19T05:09:03;28.48;;;17.30;;
51358;SDS011;37448;51.588;7.248;2022-08-19T05:11:35;23.30;;;15.43;;
51358;SDS011;37448;51.588;7.248;2022-08-19T05:14:09;22.77;;;15.93;;
51358;SDS011;37448;51.588;7.248;2022-08-19T05:16:42;19.65;;;12.30;;
51358;SDS011;37448;51.588;7.248;2022-08-19T05:19:13;17.67;;;11.30;;
51358;SDS011;37448;51.588;7.248;2022-08-19T05:22:02;14.77;;;10.68;;
51358;SDS011;37448;51.588;7.248;2022-08-19T05:24:51;20.05;;;11.77;;
51358;SDS011;37448;51.588;7.248;2022-08-19T05:27:21;17.17;;;12.35;;
51358;SDS011;37448;51.588;7.248;2022-08-19T05:29:52;16.75;;;11.48;;
51358;SDS011;37448;51.588;7.248;2022-08-19T05:32:22;18.70;;;11.70;;
51358;SDS011;37448;51.588;7.248;2022-08-19T05:34:53;18.90;;;12.77;;
51358;SDS011;37448;51.588;7.248;2022-08-19T05:37:23;20.10;;;13.52;;
51358;SDS011;37448;51.588;7.248;2022-08-19T05:39:56;21.50;;;15.38;;
51358;SDS011;37448;51.588;7.248;2022-08-19T05:42:27;21.88;;;14.02;;
51358;SDS011;37448;51.588;7.248;2022-08-19T05:44:57;22.40;;;14.73;;
51358;SDS011;37448;51.588;7.248;2022-08-19T05:47:27;21.35;;;15.18;;
51358;SDS011;37448;51.588;7.248;2022-08-19T05:49:58;24.30;;;15.60;;
51358;SDS011;37448;51.588;7.248;2022-08-19T05:52:28;22.27;;;16.15;;
51358;SDS011;37448;51.588;7.248;2022-08-19T05:54:59;22.42;;;15.77;;
51358;SDS011;37448;51.588;7.248;2022-08-19T05:57:29;24.95;;;16.63;;
51358;SDS011;37448;51.588;7.248;2022-08-19T06:00:00;22.55;;;15.27;;
51358;SDS011;37448;51.588;7.248;2022-08-19T06:02:31;26.88;;;16.45;;
51358;SDS011;37448;51.588;7.248;2022-08-19T06:05:03;24.23;;;17.05;;
51358;SDS011;37448;51.588;7.248;2022-08-19T06:07:36;27.48;;;18.25;;
51358;SDS011;37448;51.588;7.248;2022-08-19T06:10:09;27.10;;;19.10;;
51358;SDS011;37448;51.588;7.248;2022-08-19T06:12:40;24.75;;;17.73;;
51358;SDS011;37448;51.588;7.248;2022-08-19T06:15:12;27.33;;;18.55;;
51358;SDS011;37448;51.588;7.248;2022-08-19T06:17:43;25.05;;;18.20;;
51358;SDS011;37448;51.588;7.248;2022-08-19T06:20:16;24.25;;;16.13;;
51358;SDS011;37448;51.588;7.248;2022-08-19T06:22:48;24.70;;;16.05;;
51358;SDS011;37448;51.588;7.248;2022-08-19T06:25:21;23.83;;;16.15;;
51358;SDS011;37448;51.588;7.248;2022-08-19T06:27:51;21.83;;;14.85;;
51358;SDS011;37448;51.588;7.248;2022-08-19T06:30:22;23.85;;;13.57;;
51358;SDS011;37448;51.588;7.248;2022-08-19T06:32:53;18.63;;;12.45;;
51358;SDS011;37448;51.588;7.248;2022-08-19T06:35:23;21.80;;;12.85;;
51358;SDS011;37448;51.588;7.248;2022-08-19T06:37:55;19.50;;;12.00;;
51358;SDS011;37448;51.588;7.248;2022-08-19T06:40:25;21.63;;;12.70;;
51358;SDS011;37448;51.588;7.248;2022-08-19T06:42:57;19.52;;;11.95;;
51358;SDS011;37448;51.588;7.248;2022-08-19T06:45:29;21.67;;;12.68;;
51358;SDS011;37448;51.588;7.248;2022-08-19T06:48:00;20.23;;;12.00;;
51358;SDS011;37448;51.588;7.248;2022-08-19T06:50:30;19.48;;;11.98;;
51358;SDS011;37448;51.588;7.248;2022-08-19T06:53:01;15.70;;;10.98;;
51358;SDS011;37448;51.588;7.248;2022-08-19T06:55:32;20.17;;;11.85;;
51358;SDS011;37448;51.588;7.248;2022-08-19T06:58:03;18.38;;;12.10;;
51358;SDS011;37448;51.588;7.248;2022-08-19T07:00:34;16.23;;;10.73;;
51358;SDS011;37448;51.588;7.248;2022-08-19T07:03:05;16.35;;;11.13;;
51358;SDS011;37448;51.588;7.248;2022-08-19T07:05:39;16.48;;;11.25;;
51358;SDS011;37448;51.588;7.248;2022-08-19T07:08:10;18.80;;;12.52;;
51358;SDS011;37448;51.588;7.248;2022-08-19T07:10:44;17.08;;;12.23;;
51358;SDS011;37448;51.588;7.248;2022-08-19T07:13:15;16.60;;;11.23;;
51358;SDS011;37448;51.588;7.248;2022-08-19T07:15:46;17.48;;;11.27;;
51358;SDS011;37448;51.588;7.248;2022-08-19T07:18:19;17.00;;;11.40;;
51358;SDS011;37448;51.588;7.248;2022-08-19T07:20:51;16.70;;;10.95;;
51358;SDS011;37448;51.588;7.248;2022-08-19T07:23:33;15.35;;;10.95;;
51358;SDS011;37448;51.588;7.248;2022-08-19T07:26:08;16.70;;;10.77;;
51358;SDS011;37448;51.588;7.248;2022-08-19T07:28:43;17.25;;;10.75;;
51358;SDS011;37448;51.588;7.248;2022-08-19T07:31:18;16.52;;;10.23;;
51358;SDS011;37448;51.588;7.248;2022-08-19T07:33:51;19.17;;;9.95;;
51358;SDS011;37448;51.588;7.248;2022-08-19T07:36:26;18.63;;;10.85;;
51358;SDS011;37448;51.588;7.248;2022-08-19T07:39:02;22.10;;;11.48;;
51358;SDS011;37448;51.588;7.248;2022-08-19T07:41:38;16.30;;;10.77;;
51358;SDS011;37448;51.588;7.248;2022-08-19T07:44:09;16.25;;;10.95;;
51358;SDS011;37448;51.588;7.248;2022-08-19T07:46:42;16.55;;;11.85;;
51358;SDS011;37448;51.588;7.248;2022-08-19T07:49:15;15.60;;;10.95;;
51358;SDS011;37448;51.588;7.248;2022-08-19T07:51:50;18.15;;;11.77;;
51358;SDS011;37448;51.588;7.248;2022-08-19T07:54:24;17.88;;;11.50;;
51358;SDS011;37448;51.588;7.248;2022-08-19T07:59:26;19.13;;;11.10;;
51358;SDS011;37448;51.588;7.248;2022-08-19T08:01:58;18.33;;;11.77;;
51358;SDS011;37448;51.588;7.248;2022-08-19T08:04:32;15.75;;;11.15;;
51358;SDS011;37448;51.588;7.248;2022-08-19T08:07:21;18.27;;;11.50;;
51358;SDS011;37448;51.588;7.248;2022-08-19T08:10:10;16.75;;;11.48;;
51358;SDS011;37448;51.588;7.248;2022-08-19T08:12:40;16.23;;;11.43;;
51358;SDS011;37448;51.588;7.248;2022-08-19T08:15:12;17.25;;;11.55;;
51358;SDS011;37448;51.588;7.248;2022-08-19T08:17:46;16.25;;;11.90;;
51358;SDS011;37448;51.588;7.248;2022-08-19T08:20:17;19.88;;;11.73;;
51358;SDS011;37448;51.588;7.248;2022-08-19T08:22:49;20.25;;;12.02;;
51358;SDS011;37448;51.588;7.248;2022-08-19T08:25:38;15.68;;;10.55;;
51358;SDS011;37448;51.588;7.248;2022-08-19T08:28:08;14.82;;;10.77;;
51358;SDS011;37448;51.588;7.248;2022-08-19T08:30:40;16.60;;;10.88;;
51358;SDS011;37448;51.588;7.248;2022-08-19T08:33:12;18.67;;;10.98;;
51358;SDS011;37448;51.588;7.248;2022-08-19T08:35:43;14.63;;;11.27;;
51358;SDS011;37448;51.588;7.248;2022-08-19T08:38:15;19.77;;;11.35;;
51358;SDS011;37448;51.588;7.248;2022-08-19T08:40:49;15.68;;;10.18;;
51358;SDS011;37448;51.588;7.248;2022-08-19T08:43:33;17.45;;;9.77;;
51358;SDS011;37448;51.588;7.248;2022-08-19T08:46:07;13.18;;;9.30;;
51358;SDS011;37448;51.588;7.248;2022-08-19T08:48:52;9.88;;;7.70;;
51358;SDS011;37448;51.588;7.248;2022-08-19T08:51:29;12.63;;;8.35;;
51358;SDS011;37448;51.588;7.248;2022-08-19T08:54:06;13.65;;;8.57;;
51358;SDS011;37448;51.588;7.248;2022-08-19T08:56:43;13.05;;;7.35;;
51358;SDS011;37448;51.588;7.248;2022-08-19T08:59:29;11.35;;;7.53;;
51358;SDS011;37448;51.588;7.248;2022-08-19T09:02:04;12.98;;;8.50;;
51358;SDS011;37448;51.588;7.248;2022-08-19T09:04:35;14.75;;;8.63;;
51358;SDS011;37448;51.588;7.248;2022-08-19T09:10:07;12.00;;;8.77;;
51358;SDS011;37448;51.588;7.248;2022-08-19T09:15:39;14.02;;;9.18;;
51358;SDS011;37448;51.588;7.248;2022-08-19T09:18:14;12.48;;;8.80;;
51358;SDS011;37448;51.588;7.248;2022-08-19T09:20:46;13.35;;;9.10;;
51358;SDS011;37448;51.588;7.248;2022-08-19T09:23:19;13.25;;;9.70;;
51358;SDS011;37448;51.588;7.248;2022-08-19T09:25:51;13.77;;;9.68;;
51358;SDS011;37448;51.588;7.248;2022-08-19T09:28:21;11.77;;;8.75;;
51358;SDS011;37448;51.588;7.248;2022-08-19T09:30:51;14.55;;;9.40;;
51358;SDS011;37448;51.588;7.248;2022-08-19T09:33:22;15.95;;;10.50;;
51358;SDS011;37448;51.588;7.248;2022-08-19T09:36:01;15.40;;;10.95;;
51358;SDS011;37448;51.588;7.248;2022-08-19T09:38:37;14.82;;;9.80;;
51358;SDS011;37448;51.588;7.248;2022-08-19T09:41:12;13.32;;;9.43;;
51358;SDS011;37448;51.588;7.248;2022-08-19T09:43:45;14.73;;;10.30;;
51358;SDS011;37448;51.588;7.248;2022-08-19T09:46:17;13.85;;;9.73;;
51358;SDS011;37448;51.588;7.248;2022-08-19T09:48:51;16.23;;;11.27;;
51358;SDS011;37448;51.588;7.248;2022-08-19T09:51:23;16.65;;;11.65;;
51358;SDS011;37448;51.588;7.248;2022-08-19T09:53:59;18.77;;;12.43;;
51358;SDS011;37448;51.588;7.248;2022-08-19T09:56:31;17.77;;;13.02;;
51358;SDS011;37448;51.588;7.248;2022-08-19T09:59:02;15.57;;;12.20;;
51358;SDS011;37448;51.588;7.248;2022-08-19T10:01:36;22.40;;;13.15;;
51358;SDS011;37448;51.588;7.248;2022-08-19T10:04:07;17.60;;;11.93;;
51358;SDS011;37448;51.588;7.248;2022-08-19T10:06:40;15.57;;;12.05;;
51358;SDS011;37448;51.588;7.248;2022-08-19T10:09:11;17.48;;;12.68;;
51358;SDS011;37448;51.588;7.248;2022-08-19T10:11:43;18.23;;;11.45;;
51358;SDS011;37448;51.588;7.248;2022-08-19T10:14:19;16.20;;;12.38;;
51358;SDS011;37448;51.588;7.248;2022-08-19T10:16:52;17.50;;;12.05;;
51358;SDS011;37448;51.588;7.248;2022-08-19T10:19:22;19.35;;;13.18;;
51358;SDS011;37448;51.588;7.248;2022-08-19T10:21:53;17.40;;;12.32;;
51358;SDS011;37448;51.588;7.248;2022-08-19T10:24:24;17.42;;;12.30;;
51358;SDS011;37448;51.588;7.248;2022-08-19T10:26:55;18.70;;;12.30;;
51358;SDS011;37448;51.588;7.248;2022-08-19T10:29:27;23.23;;;13.40;;
51358;SDS011;37448;51.588;7.248;2022-08-19T10:31:58;19.20;;;11.77;;
51358;SDS011;37448;51.588;7.248;2022-08-19T10:34:32;18.52;;;11.18;;
51358;SDS011;37448;51.588;7.248;2022-08-19T10:37:03;14.38;;;10.30;;
51358;SDS011;37448;51.588;7.248;2022-08-19T10:42:06;13.40;;;9.30;;
51358;SDS011;37448;51.588;7.248;2022-08-19T10:44:37;16.20;;;10.05;;
51358;SDS011;37448;51.588;7.248;2022-08-19T10:47:07;14.77;;;9.20;;
51358;SDS011;37448;51.588;7.248;2022-08-19T10:49:38;12.13;;;7.88;;
51358;SDS011;37448;51.588;7.248;2022-08-19T10:52:28;11.75;;;7.95;;
51358;SDS011;37448;51.588;7.248;2022-08-19T10:55:05;13.10;;;8.55;;
51358;SDS011;37448;51.588;7.248;2022-08-19T10:57:55;11.88;;;8.05;;
51358;SDS011;37448;51.588;7.248;2022-08-19T11:00:27;12.50;;;9.13;;
51358;SDS011;37448;51.588;7.248;2022-08-19T11:02:57;11.73;;;8.45;;
51358;SDS011;37448;51.588;7.248;2022-08-19T11:05:27;13.95;;;9.02;;
51358;SDS011;37448;51.588;7.248;2022-08-19T11:07:58;13.77;;;8.93;;
51358;SDS011;37448;51.588;7.248;2022-08-19T11:10:28;12.23;;;7.80;;
51358;SDS011;37448;51.588;7.248;2022-08-19T11:12:58;9.90;;;6.28;;
51358;SDS011;37448;51.588;7.248;2022-08-19T11:15:30;10.68;;;6.90;;
51358;SDS011;37448;51.588;7.248;2022-08-19T11:18:02;12.57;;;7.38;;
51358;SDS011;37448;51.588;7.248;2022-08-19T11:20:32;10.90;;;7.28;;
51358;SDS011;37448;51.588;7.248;2022-08-19T11:23:03;11.77;;;6.95;;
51358;SDS011;37448;51.588;7.248;2022-08-19T11:25:34;12.52;;;7.88;;
51358;SDS011;37448;51.588;7.248;2022-08-19T11:28:05;10.27;;;6.15;;
51358;SDS011;37448;51.588;7.248;2022-08-19T11:30:36;12.65;;;8.70;;
51358;SDS011;37448;51.588;7.248;2022-08-19T11:35:38;16.03;;;8.97;;
51358;SDS011;37448;51.588;7.248;2022-08-19T11:38:10;14.73;;;8.15;;
51358;SDS011;37448;51.588;7.248;2022-08-19T11:40:41;14.60;;;10.23;;
51358;SDS011;37448;51.588;7.248;2022-08-19T11:43:12;12.07;;;8.60;;
51358;SDS011;37448;51.588;7.248;2022-08-19T11:45:42;14.80;;;8.30;;
51358;SDS011;37448;51.588;7.248;2022-08-19T11:48:12;14.38;;;8.50;;
51358;SDS011;37448;51.588;7.248;2022-08-19T11:50:43;10.38;;;7.50;;
51358;SDS011;37448;51.588;7.248;2022-08-19T11:53:13;12.70;;;7.55;;
51358;SDS011;37448;51.588;7.248;2022-08-19T11:55:43;9.63;;;6.25;;
51358;SDS011;37448;51.588;7.248;2022-08-19T11:58:15;14.27;;;8.10;;
51358;SDS011;37448;51.588;7.248;2022-08-19T12:00:47;12.32;;;9.60;;
51358;SDS011;37448;51.588;7.248;2022-08-19T12:03:17;13.45;;;9.02;;
51358;SDS011;37448;51.588;7.248;2022-08-19T12:05:49;11.73;;;8.38;;
51358;SDS011;37448;51.588;7.248;2022-08-19T12:08:20;14.65;;;9.43;;
51358;SDS011;37448;51.588;7.248;2022-08-19T12:10:50;12.60;;;9.23;;
51358;SDS011;37448;51.588;7.248;2022-08-19T12:13:20;15.68;;;8.32;;
51358;SDS011;37448;51.588;7.248;2022-08-19T12:15:51;14.30;;;9.52;;
51358;SDS011;37448;51.588;7.248;2022-08-19T12:18:22;14.40;;;9.95;;
51358;SDS011;37448;51.588;7.248;2022-08-19T12:20:54;16.05;;;10.38;;
51358;SDS011;37448;51.588;7.248;2022-08-19T12:23:24;12.93;;;9.45;;
51358;SDS011;37448;51.588;7.248;2022-08-19T12:25:55;13.40;;;9.20;;
51358;SDS011;37448;51.588;7.248;2022-08-19T12:28:26;11.27;;;8.02;;
51358;SDS011;37448;51.588;7.248;2022-08-19T12:30:57;12.35;;;8.30;;
51358;SDS011;37448;51.588;7.248;2022-08-19T12:33:28;20.35;;;9.73;;
51358;SDS011;37448;51.588;7.248;2022-08-19T12:36:05;9.10;;;6.40;;
51358;SDS011;37448;51.588;7.248;2022-08-19T12:38:38;8.82;;;5.65;;
51358;SDS011;37448;51.588;7.248;2022-08-19T12:41:09;9.23;;;5.20;;
51358;SDS011;37448;51.588;7.248;2022-08-19T12:43:42;8.23;;;5.60;;
51358;SDS011;37448;51.588;7.248;2022-08-19T12:46:12;8.85;;;6.22;;
51358;SDS011;37448;51.588;7.248;2022-08-19T12:48:44;9.37;;;6.17;;
51358;SDS011;37448;51.588;7.248;2022-08-19T12:51:16;12.73;;;6.03;;
51358;SDS011;37448;51.588;7.248;2022-08-19T12:53:49;9.18;;;6.75;;
51358;SDS011;37448;51.588;7.248;2022-08-19T12:56:19;13.40;;;8.25;;
51358;SDS011;37448;51.588;7.248;2022-08-19T12:58:50;11.90;;;7.50;;
51358;SDS011;37448;51.588;7.248;2022-08-19T13:01:20;9.48;;;7.15;;
51358;SDS011;37448;51.588;7.248;2022-08-19T13:03:51;9.80;;;5.97;;
51358;SDS011;37448;51.588;7.248;2022-08-19T13:06:22;10.53;;;7.60;;
51358;SDS011;37448;51.588;7.248;2022-08-19T13:08:53;11.05;;;7.60;;
51358;SDS011;37448;51.588;7.248;2022-08-19T13:13:54;11.87;;;7.53;;
51358;SDS011;37448;51.588;7.248;2022-08-19T13:16:25;9.13;;;6.70;;
51358;SDS011;37448;51.588;7.248;2022-08-19T13:18:57;10.93;;;7.15;;
51358;SDS011;37448;51.588;7.248;2022-08-19T13:21:27;10.20;;;7.10;;
51358;SDS011;37448;51.588;7.248;2022-08-19T13:23:59;12.70;;;6.85;;
51358;SDS011;37448;51.588;7.248;2022-08-19T13:26:30;12.57;;;6.60;;
51358;SDS011;37448;51.588;7.248;2022-08-19T13:29:00;11.32;;;7.82;;
51358;SDS011;37448;51.588;7.248;2022-08-19T13:31:49;8.32;;;6.00;;
51358;SDS011;37448;51.588;7.248;2022-08-19T13:34:38;11.00;;;6.15;;
51358;SDS011;37448;51.588;7.248;2022-08-19T13:37:09;9.90;;;6.53;;
51358;SDS011;37448;51.588;7.248;2022-08-19T13:39:39;14.30;;;6.63;;
51358;SDS011;37448;51.588;7.248;2022-08-19T13:42:09;11.65;;;6.38;;
51358;SDS011;37448;51.588;7.248;2022-08-19T13:44:40;8.10;;;5.55;;
51358;SDS011;37448;51.588;7.248;2022-08-19T13:47:10;9.65;;;5.32;;
51358;SDS011;37448;51.588;7.248;2022-08-19T13:49:43;7.45;;;5.22;;
51358;SDS011;37448;51.588;7.248;2022-08-19T13:52:14;12.45;;;5.13;;
51358;SDS011;37448;51.588;7.248;2022-08-19T13:54:44;6.78;;;4.50;;
51358;SDS011;37448;51.588;7.248;2022-08-19T13:57:14;8.48;;;4.70;;
51358;SDS011;37448;51.588;7.248;2022-08-19T13:59:45;7.90;;;5.03;;
51358;SDS011;37448;51.588;7.248;2022-08-19T14:02:15;7.70;;;5.13;;
51358;SDS011;37448;51.588;7.248;2022-08-19T14:04:45;7.65;;;4.45;;
51358;SDS011;37448;51.588;7.248;2022-08-19T14:07:16;9.57;;;4.65;;
51358;SDS011;37448;51.588;7.248;2022-08-19T14:09:46;8.32;;;3.80;;
51358;SDS011;37448;51.588;7.248;2022-08-19T14:12:18;6.30;;;3.97;;
51358;SDS011;37448;51.588;7.248;2022-08-19T14:14:50;6.93;;;4.20;;
51358;SDS011;37448;51.588;7.248;2022-08-19T14:17:20;7.65;;;4.00;;
51358;SDS011;37448;51.588;7.248;2022-08-19T14:19:58;9.68;;;4.00;;
51358;SDS011;37448;51.588;7.248;2022-08-19T14:22:38;8.75;;;3.97;;
51358;SDS011;37448;51.588;7.248;2022-08-19T14:25:11;6.18;;;3.95;;
51358;SDS011;37448;51.588;7.248;2022-08-19T14:27:44;7.80;;;3.88;;
51358;SDS011;37448;51.588;7.248;2022-08-19T14:30:16;8.13;;;4.43;;
51358;SDS011;37448;51.588;7.248;2022-08-19T14:32:48;7.45;;;4.32;;
51358;SDS011;37448;51.588;7.248;2022-08-19T14:35:19;7.40;;;3.55;;
51358;SDS011;37448;51.588;7.248;2022-08-19T14:37:51;6.72;;;3.55;;
51358;SDS011;37448;51.588;7.248;2022-08-19T14:40:26;9.25;;;4.05;;
51358;SDS011;37448;51.588;7.248;2022-08-19T14:43:00;8.38;;;3.53;;
51358;SDS011;37448;51.588;7.248;2022-08-19T14:45:37;5.97;;;3.72;;
51358;SDS011;37448;51.588;7.248;2022-08-19T14:48:08;9.00;;;3.85;;
51358;SDS011;37448;51.588;7.248;2022-08-19T14:50:39;7.93;;;3.60;;
51358;SDS011;37448;51.588;7.248;2022-08-19T14:53:09;6.78;;;3.83;;
51358;SDS011;37448;51.588;7.248;2022-08-19T14:55:40;8.00;;;3.85;;
51358;SDS011;37448;51.588;7.248;2022-08-19T14:58:13;8.13;;;3.30;;
51358;SDS011;37448;51.588;7.248;2022-08-19T15:00:44;5.95;;;3.45;;
51358;SDS011;37448;51.588;7.248;2022-08-19T15:03:15;8.00;;;3.70;;
51358;SDS011;37448;51.588;7.248;2022-08-19T15:05:45;6.43;;;3.40;;
51358;SDS011;37448;51.588;7.248;2022-08-19T15:08:15;8.30;;;3.80;;
51358;SDS011;37448;51.588;7.248;2022-08-19T15:10:46;7.05;;;3.40;;
51358;SDS011;37448;51.588;7.248;2022-08-19T15:13:17;5.73;;;3.43;;
51358;SDS011;37448;51.588;7.248;2022-08-19T15:15:48;7.85;;;3.75;;
51358;SDS011;37448;51.588;7.248;2022-08-19T15:18:18;7.90;;;3.80;;
51358;SDS011;37448;51.588;7.248;2022-08-19T15:20:50;8.07;;;3.83;;
51358;SDS011;37448;51.588;7.248;2022-08-19T15:23:20;6.97;;;4.25;;
51358;SDS011;37448;51.588;7.248;2022-08-19T15:25:51;9.48;;;4.80;;